sensor_id;sensor_type;location;lat;lon;timestamp;P1;durP1;ratioP1;P2;durP2;ratioP2
19107;SDS011;9686;48.832;9.126;2024-03-17T00:02:16;4.13;;;2.47;;
19107;SDS011;9686;48.832;9.126;2024-03-17T00:04:42;3.20;;;2.73;;
19107;SDS011;9686;48.832;9.126;2024-03-17T00:07:07;2.33;;;2.13;;
19107;SDS011;9686;48.832;9.126;2024-03-17T00:09:33;3.60;;;2.17;;
19107;SDS011;9686;48.832;9.126;2024-03-17T00:11:58;2.30;;;1.90;;
19107;SDS011;9686;48.832;9.126;2024-03-17T00:14:24;3.83;;;2.43;;
19107;SDS011;9686;48.832;9.126;2024-03-17T00:16:53;3.17;;;2.77;;
19107;SDS011;9686;48.832;9.126;2024-03-17T00:19:18;2.90;;;2.70;;
19107;SDS011;9686;48.832;9.126;2024-03-17T00:21:43;2.00;;;1.87;;
19107;SDS011;9686;48.832;9.126;2024-03-17T00:24:09;2.77;;;2.33;;
19107;SDS011;9686;48.832;9.126;2024-03-17T00:26:34;5.33;;;3.77;;
19107;SDS011;9686;48.832;9.126;2024-03-17T00:29:00;2.50;;;2.30;;
19107;SDS011;9686;48.832;9.126;2024-03-17T00:31:25;3.17;;;2.53;;
19107;SDS011;9686;48.832;9.126;2024-03-17T00:33:54;2.37;;;2.17;;
19107;SDS011;9686;48.832;9.126;2024-03-17T00:36:19;3.57;;;2.67;;
19107;SDS011;9686;48.832;9.126;2024-03-17T00:38:45;4.07;;;3.40;;
19107;SDS011;9686;48.832;9.126;2024-03-17T00:41:10;3.73;;;2.93;;
19107;SDS011;9686;48.832;9.126;2024-03-17T00:43:36;2.40;;;2.20;;
19107;SDS011;9686;48.832;9.126;2024-03-17T00:46:02;3.07;;;2.07;;
19107;SDS011;9686;48.832;9.126;2024-03-17T00:48:28;2.93;;;2.73;;
19107;SDS011;9686;48.832;9.126;2024-03-17T00:50:56;4.73;;;2.80;;
19107;SDS011;9686;48.832;9.126;2024-03-17T00:53:22;2.93;;;2.70;;
19107;SDS011;9686;48.832;9.126;2024-03-17T00:55:53;2.80;;;2.50;;
19107;SDS011;9686;48.832;9.126;2024-03-17T00:58:23;4.07;;;2.37;;
19107;SDS011;9686;48.832;9.126;2024-03-17T01:00:48;3.03;;;2.33;;
19107;SDS011;9686;48.832;9.126;2024-03-17T01:03:14;3.57;;;3.17;;
19107;SDS011;9686;48.832;9.126;2024-03-17T01:05:40;3.00;;;2.70;;
19107;SDS011;9686;48.832;9.126;2024-03-17T01:08:08;6.17;;;3.17;;
19107;SDS011;9686;48.832;9.126;2024-03-17T01:10:37;4.33;;;2.50;;
19107;SDS011;9686;48.832;9.126;2024-03-17T01:13:03;3.13;;;2.77;;
19107;SDS011;9686;48.832;9.126;2024-03-17T01:15:29;2.53;;;2.20;;
19107;SDS011;9686;48.832;9.126;2024-03-17T01:17:54;6.47;;;2.70;;
19107;SDS011;9686;48.832;9.126;2024-03-17T01:20:19;2.27;;;1.83;;
19107;SDS011;9686;48.832;9.126;2024-03-17T01:22:44;4.83;;;3.33;;
19107;SDS011;9686;48.832;9.126;2024-03-17T01:25:10;3.43;;;2.80;;
19107;SDS011;9686;48.832;9.126;2024-03-17T01:27:35;2.20;;;2.00;;
19107;SDS011;9686;48.832;9.126;2024-03-17T01:30:01;3.47;;;2.90;;
19107;SDS011;9686;48.832;9.126;2024-03-17T01:32:26;7.17;;;2.50;;
19107;SDS011;9686;48.832;9.126;2024-03-17T01:34:51;8.87;;;2.77;;
19107;SDS011;9686;48.832;9.126;2024-03-17T01:37:17;3.23;;;2.77;;
19107;SDS011;9686;48.832;9.126;2024-03-17T01:39:42;3.13;;;2.83;;
19107;SDS011;9686;48.832;9.126;2024-03-17T01:42:07;2.40;;;2.20;;
19107;SDS011;9686;48.832;9.126;2024-03-17T01:44:33;4.23;;;2.73;;
19107;SDS011;9686;48.832;9.126;2024-03-17T01:46:58;8.40;;;3.87;;
19107;SDS011;9686;48.832;9.126;2024-03-17T01:49:25;3.33;;;2.57;;
19107;SDS011;9686;48.832;9.126;2024-03-17T01:51:51;2.77;;;2.57;;
19107;SDS011;9686;48.832;9.126;2024-03-17T01:54:18;3.23;;;2.93;;
19107;SDS011;9686;48.832;9.126;2024-03-17T01:56:43;2.20;;;2.07;;
19107;SDS011;9686;48.832;9.126;2024-03-17T01:59:10;6.00;;;3.57;;
19107;SDS011;9686;48.832;9.126;2024-03-17T02:01:38;3.20;;;2.47;;
19107;SDS011;9686;48.832;9.126;2024-03-17T02:04:04;2.43;;;2.23;;
19107;SDS011;9686;48.832;9.126;2024-03-17T02:06:30;2.80;;;2.53;;
19107;SDS011;9686;48.832;9.126;2024-03-17T02:08:56;3.87;;;2.87;;
19107;SDS011;9686;48.832;9.126;2024-03-17T02:11:25;3.10;;;2.80;;
19107;SDS011;9686;48.832;9.126;2024-03-17T02:13:52;3.30;;;3.00;;
19107;SDS011;9686;48.832;9.126;2024-03-17T02:16:18;4.00;;;2.47;;
19107;SDS011;9686;48.832;9.126;2024-03-17T02:18:44;6.83;;;3.30;;
19107;SDS011;9686;48.832;9.126;2024-03-17T02:21:11;4.20;;;2.57;;
19107;SDS011;9686;48.832;9.126;2024-03-17T02:23:37;3.17;;;2.73;;
19107;SDS011;9686;48.832;9.126;2024-03-17T02:26:02;3.53;;;2.13;;
19107;SDS011;9686;48.832;9.126;2024-03-17T02:28:28;5.67;;;3.37;;
19107;SDS011;9686;48.832;9.126;2024-03-17T02:30:54;4.47;;;2.80;;
19107;SDS011;9686;48.832;9.126;2024-03-17T02:33:19;2.47;;;2.27;;
19107;SDS011;9686;48.832;9.126;2024-03-17T02:35:48;3.63;;;3.33;;
19107;SDS011;9686;48.832;9.126;2024-03-17T02:38:15;2.07;;;1.67;;
19107;SDS011;9686;48.832;9.126;2024-03-17T02:41:01;3.47;;;2.57;;
19107;SDS011;9686;48.832;9.126;2024-03-17T02:43:26;5.37;;;3.40;;
19107;SDS011;9686;48.832;9.126;2024-03-17T02:45:51;3.03;;;2.80;;
19107;SDS011;9686;48.832;9.126;2024-03-17T02:48:17;3.20;;;2.83;;
19107;SDS011;9686;48.832;9.126;2024-03-17T02:50:42;2.87;;;2.57;;
19107;SDS011;9686;48.832;9.126;2024-03-17T02:53:07;3.33;;;3.03;;
19107;SDS011;9686;48.832;9.126;2024-03-17T02:55:33;3.87;;;3.00;;
19107;SDS011;9686;48.832;9.126;2024-03-17T02:57:58;8.87;;;2.80;;
19107;SDS011;9686;48.832;9.126;2024-03-17T03:00:24;3.00;;;2.80;;
19107;SDS011;9686;48.832;9.126;2024-03-17T03:02:50;2.40;;;2.00;;
19107;SDS011;9686;48.832;9.126;2024-03-17T03:05:15;2.80;;;2.50;;
19107;SDS011;9686;48.832;9.126;2024-03-17T03:07:41;3.00;;;2.80;;
19107;SDS011;9686;48.832;9.126;2024-03-17T03:10:06;2.63;;;2.43;;
19107;SDS011;9686;48.832;9.126;2024-03-17T03:12:31;6.27;;;3.97;;
19107;SDS011;9686;48.832;9.126;2024-03-17T03:14:57;8.87;;;2.67;;
19107;SDS011;9686;48.832;9.126;2024-03-17T03:17:23;3.30;;;3.00;;
19107;SDS011;9686;48.832;9.126;2024-03-17T03:19:49;3.87;;;2.50;;
19107;SDS011;9686;48.832;9.126;2024-03-17T03:22:14;5.33;;;2.90;;
19107;SDS011;9686;48.832;9.126;2024-03-17T03:24:39;2.53;;;2.27;;
19107;SDS011;9686;48.832;9.126;2024-03-17T03:27:04;3.77;;;2.80;;
19107;SDS011;9686;48.832;9.126;2024-03-17T03:29:30;3.73;;;2.63;;
19107;SDS011;9686;48.832;9.126;2024-03-17T03:31:55;2.63;;;2.43;;
19107;SDS011;9686;48.832;9.126;2024-03-17T03:34:20;4.77;;;3.13;;
19107;SDS011;9686;48.832;9.126;2024-03-17T03:36:46;2.47;;;2.30;;
19107;SDS011;9686;48.832;9.126;2024-03-17T03:39:11;4.07;;;3.67;;
19107;SDS011;9686;48.832;9.126;2024-03-17T03:41:37;3.43;;;3.00;;
19107;SDS011;9686;48.832;9.126;2024-03-17T03:44:03;3.40;;;3.10;;
19107;SDS011;9686;48.832;9.126;2024-03-17T03:46:28;4.23;;;2.93;;
19107;SDS011;9686;48.832;9.126;2024-03-17T03:48:53;3.80;;;3.27;;
19107;SDS011;9686;48.832;9.126;2024-03-17T03:51:19;2.80;;;2.60;;
19107;SDS011;9686;48.832;9.126;2024-03-17T03:53:44;5.27;;;2.70;;
19107;SDS011;9686;48.832;9.126;2024-03-17T03:56:09;2.27;;;2.10;;
19107;SDS011;9686;48.832;9.126;2024-03-17T03:58:35;3.20;;;2.90;;
19107;SDS011;9686;48.832;9.126;2024-03-17T04:01:05;3.83;;;3.50;;
19107;SDS011;9686;48.832;9.126;2024-03-17T04:03:31;3.20;;;2.90;;
19107;SDS011;9686;48.832;9.126;2024-03-17T04:06:02;3.13;;;2.80;;
19107;SDS011;9686;48.832;9.126;2024-03-17T04:08:35;3.63;;;3.20;;
19107;SDS011;9686;48.832;9.126;2024-03-17T04:11:02;7.20;;;3.10;;
19107;SDS011;9686;48.832;9.126;2024-03-17T04:13:28;3.90;;;2.90;;
19107;SDS011;9686;48.832;9.126;2024-03-17T04:15:54;3.97;;;3.07;;
19107;SDS011;9686;48.832;9.126;2024-03-17T04:18:22;2.63;;;2.40;;
19107;SDS011;9686;48.832;9.126;2024-03-17T04:20:49;3.97;;;3.13;;
19107;SDS011;9686;48.832;9.126;2024-03-17T04:23:16;3.80;;;2.67;;
19107;SDS011;9686;48.832;9.126;2024-03-17T04:25:41;3.63;;;2.40;;
19107;SDS011;9686;48.832;9.126;2024-03-17T04:28:08;4.77;;;2.67;;
19107;SDS011;9686;48.832;9.126;2024-03-17T04:30:34;12.20;;;2.87;;
19107;SDS011;9686;48.832;9.126;2024-03-17T04:32:59;2.50;;;2.23;;
19107;SDS011;9686;48.832;9.126;2024-03-17T04:35:24;2.37;;;2.17;;
19107;SDS011;9686;48.832;9.126;2024-03-17T04:37:50;8.93;;;2.60;;
19107;SDS011;9686;48.832;9.126;2024-03-17T04:40:15;2.67;;;2.37;;
19107;SDS011;9686;48.832;9.126;2024-03-17T04:42:40;2.70;;;2.30;;
19107;SDS011;9686;48.832;9.126;2024-03-17T04:45:06;2.47;;;2.27;;
19107;SDS011;9686;48.832;9.126;2024-03-17T04:47:34;3.57;;;2.40;;
19107;SDS011;9686;48.832;9.126;2024-03-17T04:49:59;4.63;;;2.57;;
19107;SDS011;9686;48.832;9.126;2024-03-17T04:52:25;3.17;;;2.87;;
19107;SDS011;9686;48.832;9.126;2024-03-17T04:54:50;3.33;;;3.03;;
19107;SDS011;9686;48.832;9.126;2024-03-17T04:57:15;2.43;;;2.07;;
19107;SDS011;9686;48.832;9.126;2024-03-17T04:59:41;3.03;;;2.20;;
19107;SDS011;9686;48.832;9.126;2024-03-17T05:02:06;3.80;;;3.33;;
19107;SDS011;9686;48.832;9.126;2024-03-17T05:04:32;2.77;;;2.57;;
19107;SDS011;9686;48.832;9.126;2024-03-17T05:06:57;4.33;;;3.30;;
19107;SDS011;9686;48.832;9.126;2024-03-17T05:09:23;24.87;;;2.63;;
19107;SDS011;9686;48.832;9.126;2024-03-17T05:11:52;25.40;;;4.77;;
19107;SDS011;9686;48.832;9.126;2024-03-17T05:14:17;3.47;;;2.80;;
19107;SDS011;9686;48.832;9.126;2024-03-17T05:16:44;11.90;;;3.20;;
19107;SDS011;9686;48.832;9.126;2024-03-17T05:19:10;3.00;;;2.67;;
19107;SDS011;9686;48.832;9.126;2024-03-17T05:21:36;3.37;;;3.07;;
19107;SDS011;9686;48.832;9.126;2024-03-17T05:24:01;5.23;;;3.47;;
19107;SDS011;9686;48.832;9.126;2024-03-17T05:26:27;2.93;;;2.63;;
19107;SDS011;9686;48.832;9.126;2024-03-17T05:28:53;2.90;;;2.70;;
19107;SDS011;9686;48.832;9.126;2024-03-17T05:31:19;3.27;;;2.60;;
19107;SDS011;9686;48.832;9.126;2024-03-17T05:33:46;2.87;;;2.43;;
19107;SDS011;9686;48.832;9.126;2024-03-17T05:36:12;4.07;;;2.47;;
19107;SDS011;9686;48.832;9.126;2024-03-17T05:38:37;5.67;;;3.03;;
19107;SDS011;9686;48.832;9.126;2024-03-17T05:41:03;6.33;;;2.03;;
19107;SDS011;9686;48.832;9.126;2024-03-17T05:43:31;2.27;;;2.07;;
19107;SDS011;9686;48.832;9.126;2024-03-17T05:46:12;3.50;;;3.17;;
19107;SDS011;9686;48.832;9.126;2024-03-17T05:48:40;3.40;;;3.07;;
19107;SDS011;9686;48.832;9.126;2024-03-17T05:51:06;11.00;;;3.50;;
19107;SDS011;9686;48.832;9.126;2024-03-17T05:53:33;3.23;;;3.00;;
19107;SDS011;9686;48.832;9.126;2024-03-17T05:55:59;5.03;;;3.53;;
19107;SDS011;9686;48.832;9.126;2024-03-17T05:58:25;2.93;;;2.70;;
19107;SDS011;9686;48.832;9.126;2024-03-17T06:00:50;3.20;;;2.90;;
19107;SDS011;9686;48.832;9.126;2024-03-17T06:03:15;4.70;;;3.93;;
19107;SDS011;9686;48.832;9.126;2024-03-17T06:05:42;2.83;;;2.33;;
19107;SDS011;9686;48.832;9.126;2024-03-17T06:08:09;7.33;;;3.40;;
19107;SDS011;9686;48.832;9.126;2024-03-17T06:10:36;4.63;;;3.17;;
19107;SDS011;9686;48.832;9.126;2024-03-17T06:13:02;4.33;;;3.30;;
19107;SDS011;9686;48.832;9.126;2024-03-17T06:15:28;13.30;;;2.63;;
19107;SDS011;9686;48.832;9.126;2024-03-17T06:17:54;3.43;;;3.10;;
19107;SDS011;9686;48.832;9.126;2024-03-17T06:20:20;3.60;;;2.73;;
19107;SDS011;9686;48.832;9.126;2024-03-17T06:22:46;4.13;;;2.70;;
19107;SDS011;9686;48.832;9.126;2024-03-17T06:25:12;11.93;;;3.13;;
19107;SDS011;9686;48.832;9.126;2024-03-17T06:27:38;5.80;;;3.27;;
19107;SDS011;9686;48.832;9.126;2024-03-17T06:30:04;12.23;;;3.70;;
19107;SDS011;9686;48.832;9.126;2024-03-17T06:32:30;19.13;;;3.97;;
19107;SDS011;9686;48.832;9.126;2024-03-17T06:34:56;9.57;;;3.97;;
19107;SDS011;9686;48.832;9.126;2024-03-17T06:37:23;13.17;;;3.60;;
19107;SDS011;9686;48.832;9.126;2024-03-17T06:39:48;3.77;;;3.20;;
19107;SDS011;9686;48.832;9.126;2024-03-17T06:42:13;13.20;;;3.93;;
19107;SDS011;9686;48.832;9.126;2024-03-17T06:44:39;5.63;;;2.23;;
19107;SDS011;9686;48.832;9.126;2024-03-17T06:47:04;6.40;;;3.43;;
19107;SDS011;9686;48.832;9.126;2024-03-17T06:49:30;25.80;;;3.77;;
19107;SDS011;9686;48.832;9.126;2024-03-17T06:51:56;4.97;;;2.70;;
19107;SDS011;9686;48.832;9.126;2024-03-17T06:54:21;4.10;;;3.03;;
19107;SDS011;9686;48.832;9.126;2024-03-17T06:56:47;4.37;;;3.67;;
19107;SDS011;9686;48.832;9.126;2024-03-17T06:59:12;5.87;;;3.53;;
19107;SDS011;9686;48.832;9.126;2024-03-17T07:01:37;6.03;;;3.53;;
19107;SDS011;9686;48.832;9.126;2024-03-17T07:04:03;5.20;;;4.37;;
19107;SDS011;9686;48.832;9.126;2024-03-17T07:06:28;4.40;;;3.50;;
19107;SDS011;9686;48.832;9.126;2024-03-17T07:08:54;3.53;;;3.23;;
19107;SDS011;9686;48.832;9.126;2024-03-17T07:11:20;3.30;;;3.00;;
19107;SDS011;9686;48.832;9.126;2024-03-17T07:13:49;3.53;;;3.23;;
19107;SDS011;9686;48.832;9.126;2024-03-17T07:16:16;9.57;;;4.53;;
19107;SDS011;9686;48.832;9.126;2024-03-17T07:18:43;4.00;;;3.70;;
19107;SDS011;9686;48.832;9.126;2024-03-17T07:21:09;3.80;;;3.40;;
19107;SDS011;9686;48.832;9.126;2024-03-17T07:23:35;3.77;;;3.47;;
19107;SDS011;9686;48.832;9.126;2024-03-17T07:26:01;4.40;;;3.87;;
19107;SDS011;9686;48.832;9.126;2024-03-17T07:28:29;5.37;;;4.77;;
19107;SDS011;9686;48.832;9.126;2024-03-17T07:30:57;6.97;;;4.33;;
19107;SDS011;9686;48.832;9.126;2024-03-17T07:33:24;7.87;;;5.20;;
19107;SDS011;9686;48.832;9.126;2024-03-17T07:35:59;7.27;;;5.47;;
19107;SDS011;9686;48.832;9.126;2024-03-17T07:38:28;5.07;;;4.47;;
19107;SDS011;9686;48.832;9.126;2024-03-17T07:41:05;5.07;;;4.10;;
19107;SDS011;9686;48.832;9.126;2024-03-17T07:43:32;5.97;;;4.87;;
19107;SDS011;9686;48.832;9.126;2024-03-17T07:46:02;6.17;;;4.77;;
19107;SDS011;9686;48.832;9.126;2024-03-17T07:48:32;8.37;;;4.90;;
19107;SDS011;9686;48.832;9.126;2024-03-17T07:50:59;7.47;;;4.17;;
19107;SDS011;9686;48.832;9.126;2024-03-17T07:53:29;4.83;;;4.30;;
19107;SDS011;9686;48.832;9.126;2024-03-17T07:58:36;6.60;;;3.97;;
19107;SDS011;9686;48.832;9.126;2024-03-17T08:01:04;4.63;;;4.23;;
19107;SDS011;9686;48.832;9.126;2024-03-17T08:03:31;5.27;;;4.00;;
19107;SDS011;9686;48.832;9.126;2024-03-17T08:05:58;5.77;;;4.43;;
19107;SDS011;9686;48.832;9.126;2024-03-17T08:08:24;5.87;;;3.90;;
19107;SDS011;9686;48.832;9.126;2024-03-17T08:10:49;5.20;;;4.40;;
19107;SDS011;9686;48.832;9.126;2024-03-17T08:13:15;8.27;;;5.37;;
19107;SDS011;9686;48.832;9.126;2024-03-17T08:15:41;5.77;;;5.20;;
19107;SDS011;9686;48.832;9.126;2024-03-17T08:18:08;7.40;;;4.40;;
19107;SDS011;9686;48.832;9.126;2024-03-17T08:20:36;6.07;;;5.43;;
19107;SDS011;9686;48.832;9.126;2024-03-17T08:23:05;5.63;;;3.87;;
19107;SDS011;9686;48.832;9.126;2024-03-17T08:25:32;6.33;;;4.73;;
19107;SDS011;9686;48.832;9.126;2024-03-17T08:27:58;9.47;;;5.53;;
19107;SDS011;9686;48.832;9.126;2024-03-17T08:30:23;4.97;;;4.57;;
19107;SDS011;9686;48.832;9.126;2024-03-17T08:32:49;4.30;;;3.90;;
19107;SDS011;9686;48.832;9.126;2024-03-17T08:35:14;5.23;;;4.50;;
19107;SDS011;9686;48.832;9.126;2024-03-17T08:37:40;4.67;;;4.27;;
19107;SDS011;9686;48.832;9.126;2024-03-17T08:40:05;6.50;;;4.93;;
19107;SDS011;9686;48.832;9.126;2024-03-17T08:42:31;6.43;;;4.93;;
19107;SDS011;9686;48.832;9.126;2024-03-17T08:44:57;6.37;;;5.77;;
19107;SDS011;9686;48.832;9.126;2024-03-17T08:47:22;8.10;;;5.47;;
19107;SDS011;9686;48.832;9.126;2024-03-17T08:49:50;5.67;;;5.03;;
19107;SDS011;9686;48.832;9.126;2024-03-17T08:52:16;5.87;;;5.27;;
19107;SDS011;9686;48.832;9.126;2024-03-17T08:54:41;6.67;;;5.57;;
19107;SDS011;9686;48.832;9.126;2024-03-17T08:57:07;10.07;;;6.57;;
19107;SDS011;9686;48.832;9.126;2024-03-17T08:59:33;6.13;;;5.03;;
19107;SDS011;9686;48.832;9.126;2024-03-17T09:01:58;5.97;;;5.37;;
19107;SDS011;9686;48.832;9.126;2024-03-17T09:04:23;6.20;;;5.20;;
19107;SDS011;9686;48.832;9.126;2024-03-17T09:06:49;9.03;;;5.50;;
19107;SDS011;9686;48.832;9.126;2024-03-17T09:09:15;8.50;;;5.47;;
19107;SDS011;9686;48.832;9.126;2024-03-17T09:11:40;6.57;;;5.07;;
19107;SDS011;9686;48.832;9.126;2024-03-17T09:14:05;5.07;;;4.23;;
19107;SDS011;9686;48.832;9.126;2024-03-17T09:16:31;9.40;;;4.97;;
19107;SDS011;9686;48.832;9.126;2024-03-17T09:18:57;5.13;;;4.63;;
19107;SDS011;9686;48.832;9.126;2024-03-17T09:21:22;5.37;;;4.87;;
19107;SDS011;9686;48.832;9.126;2024-03-17T09:23:48;5.53;;;4.07;;
19107;SDS011;9686;48.832;9.126;2024-03-17T09:26:13;5.03;;;4.13;;
19107;SDS011;9686;48.832;9.126;2024-03-17T09:28:41;6.33;;;4.30;;
19107;SDS011;9686;48.832;9.126;2024-03-17T09:31:06;4.40;;;3.47;;
19107;SDS011;9686;48.832;9.126;2024-03-17T09:33:32;5.73;;;3.87;;
19107;SDS011;9686;48.832;9.126;2024-03-17T09:36:02;4.80;;;4.40;;
19107;SDS011;9686;48.832;9.126;2024-03-17T09:38:29;8.33;;;4.67;;
19107;SDS011;9686;48.832;9.126;2024-03-17T09:40:55;4.47;;;3.80;;
19107;SDS011;9686;48.832;9.126;2024-03-17T09:43:28;5.77;;;3.67;;
19107;SDS011;9686;48.832;9.126;2024-03-17T09:45:54;5.73;;;4.73;;
19107;SDS011;9686;48.832;9.126;2024-03-17T09:48:22;3.30;;;2.53;;
19107;SDS011;9686;48.832;9.126;2024-03-17T09:50:52;2.87;;;2.23;;
19107;SDS011;9686;48.832;9.126;2024-03-17T09:53:30;4.80;;;3.10;;
19107;SDS011;9686;48.832;9.126;2024-03-17T09:56:02;2.93;;;2.60;;
19107;SDS011;9686;48.832;9.126;2024-03-17T09:58:33;3.83;;;3.33;;
19107;SDS011;9686;48.832;9.126;2024-03-17T10:00:59;5.10;;;3.17;;
19107;SDS011;9686;48.832;9.126;2024-03-17T10:03:40;4.50;;;3.03;;
19107;SDS011;9686;48.832;9.126;2024-03-17T10:06:09;6.87;;;2.80;;
19107;SDS011;9686;48.832;9.126;2024-03-17T10:08:55;2.60;;;2.10;;
19107;SDS011;9686;48.832;9.126;2024-03-17T10:11:23;1.73;;;1.63;;
19107;SDS011;9686;48.832;9.126;2024-03-17T10:14:07;3.40;;;2.50;;
19107;SDS011;9686;48.832;9.126;2024-03-17T10:16:34;2.60;;;2.10;;
19107;SDS011;9686;48.832;9.126;2024-03-17T10:19:14;4.90;;;2.10;;
19107;SDS011;9686;48.832;9.126;2024-03-17T10:21:46;2.27;;;2.03;;
19107;SDS011;9686;48.832;9.126;2024-03-17T10:26:48;2.43;;;2.00;;
19107;SDS011;9686;48.832;9.126;2024-03-17T10:32:03;2.17;;;1.97;;
19107;SDS011;9686;48.832;9.126;2024-03-17T10:34:29;1.97;;;1.70;;
19107;SDS011;9686;48.832;9.126;2024-03-17T10:37:16;2.23;;;1.90;;
19107;SDS011;9686;48.832;9.126;2024-03-17T10:39:48;3.63;;;2.13;;
19107;SDS011;9686;48.832;9.126;2024-03-17T10:42:15;2.60;;;2.27;;
19107;SDS011;9686;48.832;9.126;2024-03-17T10:44:49;2.43;;;1.90;;
19107;SDS011;9686;48.832;9.126;2024-03-17T10:47:20;2.63;;;1.97;;
19107;SDS011;9686;48.832;9.126;2024-03-17T10:49:54;1.90;;;1.80;;
19107;SDS011;9686;48.832;9.126;2024-03-17T10:52:20;3.30;;;2.30;;
19107;SDS011;9686;48.832;9.126;2024-03-17T10:54:48;2.50;;;2.13;;
19107;SDS011;9686;48.832;9.126;2024-03-17T10:57:27;3.40;;;1.90;;
19107;SDS011;9686;48.832;9.126;2024-03-17T10:59:57;2.40;;;1.73;;
19107;SDS011;9686;48.832;9.126;2024-03-17T11:02:27;2.60;;;2.40;;
19107;SDS011;9686;48.832;9.126;2024-03-17T11:04:57;3.90;;;2.47;;
19107;SDS011;9686;48.832;9.126;2024-03-17T11:07:24;2.63;;;2.30;;
19107;SDS011;9686;48.832;9.126;2024-03-17T11:09:53;2.03;;;1.73;;
19107;SDS011;9686;48.832;9.126;2024-03-17T11:17:52;1.97;;;1.50;;
19107;SDS011;9686;48.832;9.126;2024-03-17T11:20:23;1.97;;;1.63;;
19107;SDS011;9686;48.832;9.126;2024-03-17T11:22:50;2.57;;;2.30;;
19107;SDS011;9686;48.832;9.126;2024-03-17T11:27:52;1.53;;;1.43;;
19107;SDS011;9686;48.832;9.126;2024-03-17T11:30:41;2.67;;;2.37;;
19107;SDS011;9686;48.832;9.126;2024-03-17T11:38:58;2.37;;;1.90;;
19107;SDS011;9686;48.832;9.126;2024-03-17T11:49:29;3.40;;;1.63;;
19107;SDS011;9686;48.832;9.126;2024-03-17T11:52:03;2.23;;;1.80;;
19107;SDS011;9686;48.832;9.126;2024-03-17T11:54:33;2.83;;;1.90;;
19107;SDS011;9686;48.832;9.126;2024-03-17T11:57:01;1.30;;;1.20;;
19107;SDS011;9686;48.832;9.126;2024-03-17T11:59:28;2.30;;;1.90;;
19107;SDS011;9686;48.832;9.126;2024-03-17T12:01:54;2.27;;;2.07;;
19107;SDS011;9686;48.832;9.126;2024-03-17T12:04:21;3.83;;;2.00;;
19107;SDS011;9686;48.832;9.126;2024-03-17T12:06:56;1.60;;;1.40;;
19107;SDS011;9686;48.832;9.126;2024-03-17T12:12:03;2.77;;;2.10;;
19107;SDS011;9686;48.832;9.126;2024-03-17T12:14:30;2.07;;;1.70;;
19107;SDS011;9686;48.832;9.126;2024-03-17T12:16:56;1.40;;;1.30;;
19107;SDS011;9686;48.832;9.126;2024-03-17T12:19:23;4.47;;;2.10;;
19107;SDS011;9686;48.832;9.126;2024-03-17T12:21:50;1.97;;;1.37;;
19107;SDS011;9686;48.832;9.126;2024-03-17T12:24:18;1.67;;;1.53;;
19107;SDS011;9686;48.832;9.126;2024-03-17T12:26:45;1.40;;;1.23;;
19107;SDS011;9686;48.832;9.126;2024-03-17T12:29:24;2.43;;;1.53;;
19107;SDS011;9686;48.832;9.126;2024-03-17T12:31:57;1.77;;;1.67;;
19107;SDS011;9686;48.832;9.126;2024-03-17T12:34:25;8.00;;;1.40;;
19107;SDS011;9686;48.832;9.126;2024-03-17T12:36:53;1.93;;;1.60;;
19107;SDS011;9686;48.832;9.126;2024-03-17T12:39:20;1.63;;;1.53;;
19107;SDS011;9686;48.832;9.126;2024-03-17T12:42:03;2.50;;;1.73;;
19107;SDS011;9686;48.832;9.126;2024-03-17T12:44:29;4.17;;;2.00;;
19107;SDS011;9686;48.832;9.126;2024-03-17T12:46:59;2.40;;;1.87;;
19107;SDS011;9686;48.832;9.126;2024-03-17T12:49:27;1.83;;;1.67;;
19107;SDS011;9686;48.832;9.126;2024-03-17T12:51:53;2.20;;;1.67;;
19107;SDS011;9686;48.832;9.126;2024-03-17T12:54:20;1.67;;;1.57;;
19107;SDS011;9686;48.832;9.126;2024-03-17T12:56:48;2.47;;;1.47;;
19107;SDS011;9686;48.832;9.126;2024-03-17T12:59:41;2.10;;;1.90;;
19107;SDS011;9686;48.832;9.126;2024-03-17T13:02:26;2.20;;;1.70;;
19107;SDS011;9686;48.832;9.126;2024-03-17T13:05:35;2.43;;;1.87;;
19107;SDS011;9686;48.832;9.126;2024-03-17T13:07:43;2.57;;;1.80;;
19107;SDS011;9686;48.832;9.126;2024-03-17T13:10:11;1.67;;;1.57;;
19107;SDS011;9686;48.832;9.126;2024-03-17T13:12:40;2.00;;;1.47;;
19107;SDS011;9686;48.832;9.126;2024-03-17T13:15:07;1.40;;;1.30;;
19107;SDS011;9686;48.832;9.126;2024-03-17T13:17:35;1.93;;;1.40;;
19107;SDS011;9686;48.832;9.126;2024-03-17T13:20:00;2.30;;;2.10;;
19107;SDS011;9686;48.832;9.126;2024-03-17T13:22:26;3.83;;;1.80;;
19107;SDS011;9686;48.832;9.126;2024-03-17T13:24:51;2.10;;;1.90;;
19107;SDS011;9686;48.832;9.126;2024-03-17T13:27:17;1.70;;;1.60;;
19107;SDS011;9686;48.832;9.126;2024-03-17T13:29:43;2.23;;;1.67;;
19107;SDS011;9686;48.832;9.126;2024-03-17T13:32:12;3.03;;;2.00;;
19107;SDS011;9686;48.832;9.126;2024-03-17T13:34:37;3.47;;;1.93;;
19107;SDS011;9686;48.832;9.126;2024-03-17T13:37:03;2.73;;;1.87;;
19107;SDS011;9686;48.832;9.126;2024-03-17T13:39:29;1.93;;;1.60;;
19107;SDS011;9686;48.832;9.126;2024-03-17T13:41:56;7.57;;;2.60;;
19107;SDS011;9686;48.832;9.126;2024-03-17T13:44:27;1.37;;;1.27;;
19107;SDS011;9686;48.832;9.126;2024-03-17T13:46:52;2.23;;;1.60;;
19107;SDS011;9686;48.832;9.126;2024-03-17T13:49:17;2.67;;;1.70;;
19107;SDS011;9686;48.832;9.126;2024-03-17T13:51:43;2.63;;;1.63;;
19107;SDS011;9686;48.832;9.126;2024-03-17T13:54:08;1.50;;;1.40;;
19107;SDS011;9686;48.832;9.126;2024-03-17T13:56:33;1.90;;;1.50;;
19107;SDS011;9686;48.832;9.126;2024-03-17T13:58:59;1.80;;;1.60;;
19107;SDS011;9686;48.832;9.126;2024-03-17T14:01:24;1.90;;;1.70;;
19107;SDS011;9686;48.832;9.126;2024-03-17T14:03:49;3.83;;;1.67;;
19107;SDS011;9686;48.832;9.126;2024-03-17T14:06:15;1.60;;;1.43;;
19107;SDS011;9686;48.832;9.126;2024-03-17T14:08:40;2.43;;;1.60;;
19107;SDS011;9686;48.832;9.126;2024-03-17T14:11:05;2.80;;;2.43;;
19107;SDS011;9686;48.832;9.126;2024-03-17T14:13:30;3.80;;;2.30;;
19107;SDS011;9686;48.832;9.126;2024-03-17T14:15:56;5.73;;;1.80;;
19107;SDS011;9686;48.832;9.126;2024-03-17T14:18:21;1.60;;;1.50;;
19107;SDS011;9686;48.832;9.126;2024-03-17T14:20:47;2.20;;;2.00;;
19107;SDS011;9686;48.832;9.126;2024-03-17T14:23:12;4.90;;;1.70;;
19107;SDS011;9686;48.832;9.126;2024-03-17T14:25:38;1.97;;;1.50;;
19107;SDS011;9686;48.832;9.126;2024-03-17T14:28:04;3.80;;;1.30;;
19107;SDS011;9686;48.832;9.126;2024-03-17T14:30:30;2.10;;;1.57;;
19107;SDS011;9686;48.832;9.126;2024-03-17T14:32:56;1.77;;;1.67;;
19107;SDS011;9686;48.832;9.126;2024-03-17T14:35:21;3.10;;;2.03;;
19107;SDS011;9686;48.832;9.126;2024-03-17T14:37:47;3.23;;;1.63;;
19107;SDS011;9686;48.832;9.126;2024-03-17T14:40:13;2.00;;;1.80;;
19107;SDS011;9686;48.832;9.126;2024-03-17T14:42:47;4.33;;;2.50;;
19107;SDS011;9686;48.832;9.126;2024-03-17T14:45:12;2.47;;;2.10;;
19107;SDS011;9686;48.832;9.126;2024-03-17T14:47:38;2.23;;;2.00;;
19107;SDS011;9686;48.832;9.126;2024-03-17T14:50:04;2.60;;;1.60;;
19107;SDS011;9686;48.832;9.126;2024-03-17T14:52:30;2.30;;;1.70;;
19107;SDS011;9686;48.832;9.126;2024-03-17T14:54:55;2.40;;;1.83;;
19107;SDS011;9686;48.832;9.126;2024-03-17T14:57:21;2.57;;;1.80;;
19107;SDS011;9686;48.832;9.126;2024-03-17T14:59:47;2.47;;;1.50;;
19107;SDS011;9686;48.832;9.126;2024-03-17T15:02:12;1.93;;;1.40;;
19107;SDS011;9686;48.832;9.126;2024-03-17T15:04:37;1.43;;;1.30;;
19107;SDS011;9686;48.832;9.126;2024-03-17T15:07:03;3.73;;;1.63;;
19107;SDS011;9686;48.832;9.126;2024-03-17T15:09:28;3.83;;;1.73;;
19107;SDS011;9686;48.832;9.126;2024-03-17T15:11:54;2.23;;;1.67;;
19107;SDS011;9686;48.832;9.126;2024-03-17T15:14:19;1.80;;;1.60;;
19107;SDS011;9686;48.832;9.126;2024-03-17T15:16:45;2.70;;;1.70;;
19107;SDS011;9686;48.832;9.126;2024-03-17T15:19:10;2.70;;;1.70;;
19107;SDS011;9686;48.832;9.126;2024-03-17T15:21:35;2.10;;;1.70;;
19107;SDS011;9686;48.832;9.126;2024-03-17T15:24:01;3.43;;;1.57;;
19107;SDS011;9686;48.832;9.126;2024-03-17T15:26:29;2.23;;;1.67;;
19107;SDS011;9686;48.832;9.126;2024-03-17T15:28:54;1.40;;;1.30;;
19107;SDS011;9686;48.832;9.126;2024-03-17T15:31:20;1.90;;;1.43;;
19107;SDS011;9686;48.832;9.126;2024-03-17T15:33:49;4.00;;;1.57;;